createdAt,value
2018-12-30T00:00:16.898Z,100221.92
2018-12-30T00:00:48.046Z,100222.80
2018-12-30T00:01:19.236Z,100218.94
2018-12-30T00:01:50.418Z,100218.05
2018-12-30T00:02:21.948Z,100219.34
2018-12-30T00:02:53.426Z,100220.22
2018-12-30T00:03:25.110Z,100222.81
2018-12-30T00:03:56.531Z,100218.05
2018-12-30T00:04:28.155Z,100221.95
2018-12-30T00:04:59.695Z,100216.78
2018-12-30T00:05:31.323Z,100218.48
2018-12-30T00:06:02.647Z,100218.92
2018-12-30T00:06:34.071Z,100214.64
2018-12-30T00:07:05.534Z,100219.36
2018-12-30T00:07:36.692Z,100220.25
2018-12-30T00:08:07.831Z,100221.52
2018-12-30T00:08:38.974Z,100221.52
2018-12-30T00:09:10.130Z,100216.34
2018-12-30T00:09:41.651Z,100218.48
2018-12-30T00:10:12.799Z,100219.78
2018-12-30T00:10:43.942Z,100217.19
2018-12-30T00:11:15.092Z,100223.69
2018-12-30T00:11:46.243Z,100218.92
2018-12-30T00:12:17.395Z,100218.92
2018-12-30T00:12:48.610Z,100220.25
2018-12-30T00:13:20.240Z,100221.09
2018-12-30T00:13:51.392Z,100222.80
2018-12-30T00:14:22.533Z,100220.63
2018-12-30T00:14:53.673Z,100222.81
2018-12-30T00:15:25.100Z,100220.22
2018-12-30T00:15:56.256Z,100220.20
2018-12-30T00:16:27.397Z,100216.31
2018-12-30T00:16:58.540Z,100229.66
2018-12-30T00:17:29.683Z,100228.39
2018-12-30T00:18:01.259Z,100228.80
2018-12-30T00:18:32.418Z,100224.48
2018-12-30T00:19:06.576Z,100227.52
2018-12-30T00:19:42.408Z,100221.03
2018-12-30T00:20:10.607Z,100225.34
2018-12-30T00:20:41.754Z,100229.22
2018-12-30T00:21:12.943Z,100224.90
2018-12-30T00:21:46.438Z,100231.80
2018-12-30T00:22:17.592Z,100229.22
2018-12-30T00:22:48.822Z,100231.38
2018-12-30T00:23:20.009Z,100230.92
2018-12-30T00:23:51.163Z,100231.34
2018-12-30T00:24:22.357Z,100233.52
2018-12-30T00:24:53.501Z,100238.69
2018-12-30T00:25:24.656Z,100231.34
2018-12-30T00:25:56.142Z,100237.77
2018-12-30T00:26:27.286Z,100234.75
2018-12-30T00:26:58.444Z,100230.87
2018-12-30T00:27:29.590Z,100239.48
2018-12-30T00:28:00.738Z,100234.72
2018-12-30T00:28:31.887Z,100234.28
2018-12-30T00:29:03.042Z,100234.28
2018-12-30T00:29:34.188Z,100235.56
2018-12-30T00:30:05.336Z,100234.24
2018-12-30T00:30:36.483Z,100238.12
2018-12-30T00:31:08.008Z,100238.12
2018-12-30T00:31:39.243Z,100233.80
2018-12-30T00:32:10.383Z,100230.34
2018-12-30T00:32:41.811Z,100230.33
2018-12-30T00:33:12.952Z,100234.62
2018-12-30T00:33:44.106Z,100233.32
2018-12-30T00:34:15.259Z,100239.34
2018-12-30T00:34:46.398Z,100232.88
2018-12-30T00:35:17.548Z,100232.00
2018-12-30T00:35:48.700Z,100227.27
2018-12-30T00:36:19.917Z,100234.58
2018-12-30T00:36:51.078Z,100227.72
2018-12-30T00:37:22.228Z,100232.03
2018-12-30T00:37:53.372Z,100236.31
2018-12-30T00:38:24.795Z,100235.42
2018-12-30T00:38:55.940Z,100232.84
2018-12-30T00:39:27.099Z,100232.40
2018-12-30T00:39:58.243Z,100234.54
2018-12-30T00:40:29.438Z,100236.72
2018-12-30T00:41:00.589Z,100229.38
2018-12-30T00:41:31.731Z,100234.98
2018-12-30T00:42:02.893Z,100238.86
2018-12-30T00:42:34.041Z,100234.98
2018-12-30T00:43:05.183Z,100231.95
2018-12-30T00:43:36.343Z,100238.02
2018-12-30T00:44:07.858Z,100235.42
2018-12-30T00:44:39.010Z,100237.56
2018-12-30T00:45:10.158Z,100235.42
2018-12-30T00:45:41.345Z,100239.70
2018-12-30T00:46:12.535Z,100234.09
2018-12-30T00:46:43.683Z,100234.54
2018-12-30T00:47:14.894Z,100240.55
2018-12-30T00:47:46.049Z,100237.53
2018-12-30T00:48:17.200Z,100237.97
2018-12-30T00:48:48.342Z,100235.38
2018-12-30T00:49:19.497Z,100237.08
2018-12-30T00:49:50.827Z,100236.20
2018-12-30T00:50:21.979Z,100238.33
2018-12-30T00:50:53.520Z,100237.48
2018-12-30T00:51:24.687Z,100234.45
2018-12-30T00:51:55.831Z,100233.16
2018-12-30T00:52:27.024Z,100233.56
2018-12-30T00:52:58.176Z,100236.15
2018-12-30T00:53:29.333Z,100231.83
2018-12-30T00:54:00.553Z,100239.17
2018-12-30T00:54:31.721Z,100233.52
2018-12-30T00:55:02.880Z,100233.08
2018-12-30T00:55:34.025Z,100226.63
2018-12-30T00:56:05.240Z,100234.38
2018-12-30T00:56:36.803Z,100229.20
2018-12-30T00:57:07.984Z,100228.36
2018-12-30T00:57:39.137Z,100226.63
2018-12-30T00:58:10.323Z,100230.01
2018-12-30T00:58:41.472Z,100226.58
2018-12-30T00:59:12.670Z,100228.27
2018-12-30T00:59:43.818Z,100231.73
2018-12-30T01:00:14.966Z,100224.84
2018-12-30T01:00:46.118Z,100220.97
2018-12-30T01:01:17.272Z,100224.40
2018-12-30T01:01:48.437Z,100227.83
2018-12-30T01:02:19.962Z,100227.82
2018-12-30T01:02:51.104Z,100225.64
2018-12-30T01:03:22.298Z,100225.64
2018-12-30T01:03:53.444Z,100227.33
2018-12-30T01:04:24.596Z,100223.45
2018-12-30T01:04:55.793Z,100229.06
2018-12-30T01:05:26.957Z,100229.50
2018-12-30T01:05:58.103Z,100228.62
2018-12-30T01:06:29.259Z,100226.88
2018-12-30T01:07:00.414Z,100224.30
2018-12-30T01:07:31.571Z,100228.21
2018-12-30T01:08:02.941Z,100226.48
2018-12-30T01:08:34.096Z,100226.04
2018-12-30T01:09:05.243Z,100230.35
2018-12-30T01:09:36.399Z,100232.49
2018-12-30T01:10:07.608Z,100232.04
2018-12-30T01:10:38.848Z,100229.91
2018-12-30T01:11:10.001Z,100231.59
2018-12-30T01:11:41.154Z,100226.42
2018-12-30T01:12:12.305Z,100234.61
2018-12-30T01:12:43.457Z,100233.28
2018-12-30T01:13:14.626Z,100233.68
2018-12-30T01:13:45.824Z,100227.23
2018-12-30T01:14:16.976Z,100228.52
2018-12-30T01:14:48.500Z,100226.83
2018-12-30T01:15:19.653Z,100231.10
2018-12-30T01:15:50.804Z,100227.66
2018-12-30T01:16:21.961Z,100229.36
2018-12-30T01:16:53.137Z,100233.63
2018-12-30T01:17:24.293Z,100227.17
2018-12-30T01:17:55.447Z,100229.34
2018-12-30T01:18:26.616Z,100230.59
2018-12-30T01:18:57.760Z,100230.19
2018-12-30T01:19:28.932Z,100225.44
2018-12-30T01:20:00.262Z,100227.16
2018-12-30T01:20:31.714Z,100229.30
2018-12-30T01:21:02.867Z,100228.02
2018-12-30T01:21:34.030Z,100227.61
2018-12-30T01:22:05.180Z,100225.44
2018-12-30T01:22:36.332Z,100228.90
2018-12-30T01:23:07.491Z,100226.73
2018-12-30T01:23:38.697Z,100228.86
2018-12-30T01:24:09.840Z,100225.83
2018-12-30T01:24:40.991Z,100222.39
2018-12-30T01:25:12.145Z,100228.41
2018-12-30T01:25:43.299Z,100225.81
2018-12-30T01:26:14.821Z,100223.23
2018-12-30T01:26:45.966Z,100223.23
2018-12-30T01:27:17.114Z,100227.95
2018-12-30T01:27:48.301Z,100226.22
2018-12-30T01:28:19.442Z,100220.21
2018-12-30T01:28:50.642Z,100218.92
2018-12-30T01:29:21.799Z,100221.05
2018-12-30T01:29:52.953Z,100226.16
2018-12-30T01:30:24.105Z,100223.63
2018-12-30T01:30:55.261Z,100226.61
2018-12-30T01:31:26.416Z,100226.16
2018-12-30T01:31:57.573Z,100225.31
2018-12-30T01:32:28.726Z,100224.42
2018-12-30T01:33:00.166Z,100223.12
2018-12-30T01:33:31.320Z,100220.95
2018-12-30T01:34:02.517Z,100224.82
2018-12-30T01:34:33.667Z,100217.52
2018-12-30T01:35:04.815Z,100226.10
2018-12-30T01:35:35.960Z,100220.09
2018-12-30T01:36:07.113Z,100216.63
2018-12-30T01:36:38.368Z,100224.80
2018-12-30T01:37:09.558Z,100217.51
2018-12-30T01:37:40.710Z,100218.80
2018-12-30T01:38:11.856Z,100217.08
2018-12-30T01:38:43.391Z,100223.08
2018-12-30T01:39:14.536Z,100215.33
2018-12-30T01:39:45.865Z,100220.92
2018-12-30T01:40:17.012Z,100217.45
2018-12-30T01:40:48.260Z,100213.99
2018-12-30T01:41:19.403Z,100214.88
2018-12-30T01:41:50.604Z,100215.72
2018-12-30T01:42:21.801Z,100212.69
2018-12-30T01:42:52.960Z,100213.13
2018-12-30T01:43:24.108Z,100213.13
2018-12-30T01:43:55.252Z,100218.73
2018-12-30T01:44:26.406Z,100217.02
2018-12-30T01:44:57.563Z,100214.03
2018-12-30T01:45:29.127Z,100220.48
2018-12-30T01:46:00.290Z,100217.47
2018-12-30T01:46:31.442Z,100218.75
2018-12-30T01:47:02.601Z,100211.90
2018-12-30T01:47:33.751Z,100218.35
2018-12-30T01:48:04.899Z,100215.33
2018-12-30T01:48:36.056Z,100212.31
2018-12-30T01:49:07.219Z,100211.02
2018-12-30T01:49:38.374Z,100209.72
2018-12-30T01:50:09.574Z,100212.75
2018-12-30T01:50:40.719Z,100214.03
2018-12-30T01:51:12.048Z,100211.41
2018-12-30T01:51:43.201Z,100206.23
2018-12-30T01:52:14.634Z,100211.39
2018-12-30T01:52:45.785Z,100214.42
2018-12-30T01:53:16.939Z,100208.81
2018-12-30T01:53:48.456Z,100209.66
2018-12-30T01:54:19.648Z,100206.19
2018-12-30T01:54:50.800Z,100210.90
2018-12-30T01:55:21.950Z,100207.03
2018-12-30T01:55:53.103Z,100205.33
2018-12-30T01:56:24.256Z,100210.05
2018-12-30T01:56:55.395Z,100205.28
2018-12-30T01:57:26.533Z,100207.84
2018-12-30T01:57:58.072Z,100209.14
2018-12-30T01:58:29.297Z,100199.67
2018-12-30T01:59:00.496Z,100209.14
2018-12-30T01:59:31.654Z,100208.70
2018-12-30T02:00:02.808Z,100206.13
2018-12-30T02:00:33.963Z,100205.28
2018-12-30T02:01:05.116Z,100207.41
2018-12-30T02:01:36.265Z,100208.70
2018-12-30T02:02:07.424Z,100203.10
2018-12-30T02:02:38.609Z,100202.24
2018-12-30T02:03:09.768Z,100206.11
2018-12-30T02:03:40.934Z,100211.22
2018-12-30T02:04:12.087Z,100204.77
2018-12-30T02:04:43.617Z,100204.77
2018-12-30T02:05:14.769Z,100205.66
2018-12-30T02:05:45.914Z,100206.89
2018-12-30T02:06:17.056Z,100204.26
2018-12-30T02:06:48.200Z,100200.83
2018-12-30T02:07:19.351Z,100196.07
2018-12-30T02:07:50.540Z,100200.39
2018-12-30T02:08:21.683Z,100198.70
2018-12-30T02:08:52.872Z,100196.52
2018-12-30T02:09:24.015Z,100196.52
2018-12-30T02:09:55.208Z,100196.08
2018-12-30T02:10:26.531Z,100193.05
2018-12-30T02:10:57.679Z,100194.77
2018-12-30T02:11:29.110Z,100192.58
2018-12-30T02:12:00.261Z,100199.42
2018-12-30T02:12:31.417Z,100197.30
2018-12-30T02:13:02.913Z,100197.30
2018-12-30T02:13:34.105Z,100194.27
2018-12-30T02:14:05.274Z,100192.97
2018-12-30T02:14:36.465Z,100189.55
2018-12-30T02:15:07.620Z,100191.28
2018-12-30T02:15:38.780Z,100192.58
2018-12-30T02:16:09.931Z,100191.73
2018-12-30T02:16:41.079Z,100190.85
2018-12-30T02:17:12.509Z,100189.11
2018-12-30T02:17:43.708Z,100192.13
2018-12-30T02:18:14.872Z,100187.81
2018-12-30T02:18:46.021Z,100190.39
2018-12-30T02:19:17.166Z,100186.98
2018-12-30T02:19:48.323Z,100183.96
2018-12-30T02:20:19.525Z,100178.39
2018-12-30T02:20:50.673Z,100180.97
2018-12-30T02:21:21.821Z,100175.38
2018-12-30T02:21:52.975Z,100175.39
2018-12-30T02:22:24.122Z,100174.53
2018-12-30T02:22:55.279Z,100178.41
2018-12-30T02:23:26.488Z,100174.09
2018-12-30T02:23:57.923Z,100174.55
2018-12-30T02:24:29.079Z,100175.44
2018-12-30T02:25:00.319Z,100176.28
2018-12-30T02:25:31.500Z,100173.25
2018-12-30T02:26:02.685Z,100178.84
2018-12-30T02:26:33.841Z,100180.59
2018-12-30T02:27:05.000Z,100178.85
2018-12-30T02:27:36.208Z,100174.98
2018-12-30T02:28:07.355Z,100177.58
2018-12-30T02:28:38.519Z,100180.16
2018-12-30T02:29:09.678Z,100177.17
2018-12-30T02:29:40.823Z,100174.59
2018-12-30T02:30:11.979Z,100177.17
2018-12-30T02:30:43.511Z,100175.00
2018-12-30T02:31:14.663Z,100179.31
2018-12-30T02:31:45.811Z,100173.71
2018-12-30T02:32:16.962Z,100173.31
2018-12-30T02:32:48.094Z,100174.17
2018-12-30T02:33:20.582Z,100173.77
2018-12-30T02:33:51.731Z,100168.61
2018-12-30T02:34:22.897Z,100176.34
2018-12-30T02:34:54.045Z,100176.78
2018-12-30T02:35:25.215Z,100168.21
2018-12-30T02:35:56.366Z,100178.53
2018-12-30T02:36:27.519Z,100167.38
2018-12-30T02:36:58.669Z,100175.96
2018-12-30T02:37:30.036Z,100168.23
2018-12-30T02:38:01.187Z,100172.14
2018-12-30T02:38:32.340Z,100170.86
2018-12-30T02:39:03.495Z,100171.30
2018-12-30T02:39:34.701Z,100173.00
2018-12-30T02:40:05.921Z,100174.73
2018-12-30T02:40:37.070Z,100170.46
2018-12-30T02:41:08.239Z,100168.30
2018-12-30T02:41:39.396Z,100173.89
2018-12-30T02:42:10.554Z,100175.63
2018-12-30T02:42:41.706Z,100173.45
2018-12-30T02:43:12.896Z,100177.31
2018-12-30T02:43:44.044Z,100170.02
2018-12-30T02:44:15.564Z,100171.30
2018-12-30T02:44:46.712Z,100171.30
2018-12-30T02:45:17.903Z,100176.80
2018-12-30T02:45:49.098Z,100172.09
2018-12-30T02:46:22.712Z,100174.67
2018-12-30T02:46:54.954Z,100175.95
2018-12-30T02:47:26.112Z,100172.53
2018-12-30T02:47:57.261Z,100168.21
2018-12-30T02:48:28.415Z,100172.93
2018-12-30T02:48:59.591Z,100176.35
2018-12-30T02:49:30.774Z,100174.20
2018-12-30T02:50:01.920Z,100175.94
2018-12-30T02:50:33.073Z,100175.06
2018-12-30T02:51:04.221Z,100171.20
2018-12-30T02:51:35.369Z,100171.63
2018-12-30T02:52:06.898Z,100169.50
2018-12-30T02:52:38.079Z,100169.50
2018-12-30T02:53:09.203Z,100172.08
2018-12-30T02:53:40.353Z,100175.45
2018-12-30T02:54:11.544Z,100165.58
2018-12-30T02:54:42.698Z,100172.48
2018-12-30T02:55:13.902Z,100176.84
2018-12-30T02:55:45.041Z,100171.25
2018-12-30T02:56:16.283Z,100174.72
2018-12-30T02:56:47.438Z,100174.72
2018-12-30T02:57:18.597Z,100171.70
2018-12-30T02:57:49.751Z,100174.72
2018-12-30T02:58:20.950Z,100167.83
2018-12-30T02:58:52.431Z,100176.00
2018-12-30T02:59:23.549Z,100171.26
2018-12-30T02:59:54.693Z,100169.97
2018-12-30T03:00:25.844Z,100171.30
2018-12-30T03:00:56.997Z,100165.26
2018-12-30T03:01:28.161Z,100164.81
2018-12-30T03:01:59.309Z,100166.10
2018-12-30T03:02:30.486Z,100165.70
2018-12-30T03:03:01.625Z,100161.39
2018-12-30T03:03:32.770Z,100170.02
2018-12-30T03:04:03.923Z,100162.73
2018-12-30T03:04:35.121Z,100167.05
2018-12-30T03:05:06.267Z,100166.65
2018-12-30T03:05:37.696Z,100165.77
2018-12-30T03:06:08.854Z,100162.80
2018-12-30T03:06:40.281Z,100161.95
2018-12-30T03:07:11.432Z,100167.95
2018-12-30T03:07:42.601Z,100164.97
2018-12-30T03:08:13.745Z,100164.54
2018-12-30T03:08:44.884Z,100167.11
2018-12-30T03:09:16.066Z,100168.84
2018-12-30T03:09:47.207Z,100160.66
2018-12-30T03:10:18.355Z,100162.80
2018-12-30T03:10:49.491Z,100166.66
2018-12-30T03:11:20.684Z,100165.38
2018-12-30T03:11:51.820Z,100171.83
2018-12-30T03:12:23.037Z,100163.23
2018-12-30T03:12:54.181Z,100166.67
2018-12-30T03:13:25.339Z,100161.06
2018-12-30T03:13:56.474Z,100163.64
2018-12-30T03:14:27.627Z,100167.95
2018-12-30T03:14:58.768Z,100167.06
2018-12-30T03:15:29.949Z,100164.52
2018-12-30T03:16:03.205Z,100161.91
2018-12-30T03:16:33.969Z,100160.66
2018-12-30T03:17:05.118Z,100169.24
2018-12-30T03:17:36.267Z,100161.50
2018-12-30T03:18:07.411Z,100167.51
2018-12-30T03:18:38.611Z,100162.34
2018-12-30T03:19:09.766Z,100163.23
2018-12-30T03:19:40.915Z,100162.79
2018-12-30T03:20:12.426Z,100164.08
2018-12-30T03:20:43.627Z,100160.66
2018-12-30T03:21:14.827Z,100165.36
2018-12-30T03:21:46.035Z,100164.03
2018-12-30T03:22:17.257Z,100163.64
2018-12-30T03:22:48.418Z,100166.22
2018-12-30T03:23:19.565Z,100170.53
2018-12-30T03:23:50.707Z,100165.82
2018-12-30T03:24:21.856Z,100172.70
2018-12-30T03:24:53.013Z,100168.41
2018-12-30T03:25:24.144Z,100170.13
2018-12-30T03:25:55.289Z,100166.70
2018-12-30T03:26:26.468Z,100165.43
2018-12-30T03:26:57.614Z,100167.16
2018-12-30T03:27:28.760Z,100167.17
2018-12-30T03:27:59.900Z,100167.62
2018-12-30T03:28:31.047Z,100171.05
2018-12-30T03:29:02.185Z,100171.08
2018-12-30T03:29:33.341Z,100171.09
2018-12-30T03:30:04.501Z,100168.06
2018-12-30T03:30:35.732Z,100170.25
2018-12-30T03:31:06.894Z,100170.25
2018-12-30T03:31:38.029Z,100167.72
2018-12-30T03:32:09.182Z,100171.59
2018-12-30T03:32:40.409Z,100175.47
2018-12-30T03:33:11.572Z,100170.35
2018-12-30T03:33:42.715Z,100172.94
2018-12-30T03:34:13.876Z,100171.25
2018-12-30T03:34:45.054Z,100173.83
2018-12-30T03:35:16.188Z,100170.84
2018-12-30T03:35:47.336Z,100169.11
2018-12-30T03:36:18.519Z,100174.72
2018-12-30T03:36:49.663Z,100168.27
2018-12-30T03:37:20.818Z,100170.45
2018-12-30T03:37:51.961Z,100171.74
2018-12-30T03:38:23.100Z,100166.58
2018-12-30T03:38:54.284Z,100166.59
2018-12-30T03:39:25.430Z,100172.63
2018-12-30T03:39:56.566Z,100173.08
2018-12-30T03:40:27.712Z,100176.95
2018-12-30T03:40:58.856Z,100170.49
2018-12-30T03:41:30.002Z,100173.92
2018-12-30T03:42:01.224Z,100170.50
2018-12-30T03:42:32.370Z,100169.25
2018-12-30T03:43:03.519Z,100168.80
2018-12-30T03:43:34.663Z,100167.11
2018-12-30T03:44:05.853Z,100171.84
2018-12-30T03:44:37.001Z,100170.59
2018-12-30T03:45:08.225Z,100167.16
2018-12-30T03:45:39.374Z,100164.58
2018-12-30T03:46:10.556Z,100171.03
2018-12-30T03:46:41.746Z,100168.01
2018-12-30T03:47:12.889Z,100170.62
2018-12-30T03:47:44.037Z,100172.36
2018-12-30T03:48:15.179Z,100166.75
2018-12-30T03:48:46.338Z,100175.39
2018-12-30T03:49:17.531Z,100166.35
2018-12-30T03:49:48.678Z,100164.18
2018-12-30T03:50:19.822Z,100172.40
2018-12-30T03:50:50.970Z,100169.82
2018-12-30T03:51:22.116Z,100165.51
2018-12-30T03:51:53.296Z,100173.69
2018-12-30T03:52:24.441Z,100164.25
2018-12-30T03:52:55.586Z,100168.12
2018-12-30T03:53:26.734Z,100164.70
2018-12-30T03:53:57.889Z,100166.42
2018-12-30T03:54:29.066Z,100169.89
2018-12-30T03:55:00.270Z,100166.47
2018-12-30T03:55:31.399Z,100171.19
2018-12-30T03:56:02.607Z,100163.88
2018-12-30T03:56:35.714Z,100171.19
2018-12-30T03:57:06.577Z,100167.31
2018-12-30T03:57:37.724Z,100168.20
2018-12-30T03:58:08.875Z,100171.22
2018-12-30T03:58:40.067Z,100168.64
2018-12-30T03:59:11.214Z,100167.79
2018-12-30T03:59:42.407Z,100162.63
2018-12-30T04:00:13.555Z,100170.38
2018-12-30T04:00:44.702Z,100167.79
2018-12-30T04:01:15.845Z,100168.64
2018-12-30T04:01:47.005Z,100169.08
2018-12-30T04:02:18.156Z,100166.53
2018-12-30T04:02:49.314Z,100164.80
2018-12-30T04:03:20.465Z,100171.26
2018-12-30T04:03:51.631Z,100171.70
2018-12-30T04:04:22.762Z,100169.11
2018-12-30T04:04:53.962Z,100176.02
2018-12-30T04:05:25.233Z,100174.31
2018-12-30T04:05:56.374Z,100173.88
2018-12-30T04:06:27.529Z,100173.46
2018-12-30T04:06:58.672Z,100171.31
2018-12-30T04:07:31.874Z,100173.91
2018-12-30T04:08:02.753Z,100178.66
2018-12-30T04:08:33.900Z,100172.20
2018-12-30T04:09:05.072Z,100176.95
2018-12-30T04:09:36.278Z,100178.25
2018-12-30T04:10:07.422Z,100178.25
2018-12-30T04:10:38.596Z,100180.42
2018-12-30T04:11:09.757Z,100176.10
2018-12-30T04:11:40.914Z,100179.57
2018-12-30T04:12:12.060Z,100176.10
2018-12-30T04:12:43.213Z,100177.84
2018-12-30T04:13:14.359Z,100180.86
2018-12-30T04:13:45.507Z,100179.13
2018-12-30T04:14:16.748Z,100182.15
2018-12-30T04:14:47.878Z,100179.13
2018-12-30T04:15:19.026Z,100179.56
2018-12-30T04:15:50.213Z,100179.56
2018-12-30T04:16:21.406Z,100178.27
2018-12-30T04:16:52.557Z,100179.56
2018-12-30T04:17:23.701Z,100178.71
2018-12-30T04:17:54.840Z,100180.45
2018-12-30T04:18:25.985Z,100184.35
2018-12-30T04:18:57.135Z,100178.33
2018-12-30T04:19:28.290Z,100179.62
2018-12-30T04:19:59.429Z,100177.03
2018-12-30T04:20:30.582Z,100182.20
2018-12-30T04:21:01.730Z,100178.77
2018-12-30T04:21:32.908Z,100179.20
2018-12-30T04:22:04.064Z,100182.64
2018-12-30T04:22:35.197Z,100180.50
2018-12-30T04:23:06.348Z,100180.50
2018-12-30T04:23:37.497Z,100178.77
2018-12-30T04:24:08.641Z,100179.20
2018-12-30T04:24:39.794Z,100178.77
2018-12-30T04:25:10.937Z,100184.78
2018-12-30T04:25:42.088Z,100180.05
2018-12-30T04:26:13.295Z,100180.94
2018-12-30T04:26:44.439Z,100188.25
2018-12-30T04:27:18.420Z,100183.52
2018-12-30T04:27:49.558Z,100184.81
2018-12-30T04:28:20.775Z,100180.09
2018-12-30T04:28:51.936Z,100183.96
2018-12-30T04:29:23.084Z,100180.93
2018-12-30T04:29:54.235Z,100178.79
2018-12-30T04:30:25.392Z,100186.98
2018-12-30T04:30:56.551Z,100183.55
2018-12-30T04:31:27.746Z,100184.83
2018-12-30T04:31:58.946Z,100174.52
2018-12-30T04:32:30.047Z,100179.27
2018-12-30T04:33:01.193Z,100174.52
2018-12-30T04:33:32.356Z,100177.53
2018-12-30T04:34:03.511Z,100179.71
2018-12-30T04:34:34.651Z,100172.36
2018-12-30T04:35:05.793Z,100178.83
2018-12-30T04:35:36.941Z,100173.69
2018-12-30T04:36:08.090Z,100174.53
2018-12-30T04:36:39.285Z,100173.69
2018-12-30T04:37:10.426Z,100173.24
2018-12-30T04:37:41.572Z,100176.23
2018-12-30T04:38:12.732Z,100171.95
2018-12-30T04:38:43.881Z,100176.27
2018-12-30T04:39:15.218Z,100171.95
2018-12-30T04:39:46.370Z,100170.22
2018-12-30T04:40:17.529Z,100174.53
2018-12-30T04:40:48.660Z,100175.82
2018-12-30T04:41:19.817Z,100169.79
2018-12-30T04:41:50.967Z,100178.88
2018-12-30T04:42:22.107Z,100171.09
2018-12-30T04:42:53.304Z,100179.70
2018-12-30T04:43:24.441Z,100181.44
2018-12-30T04:43:55.594Z,100179.28
2018-12-30T04:44:26.745Z,100178.84
2018-12-30T04:44:57.889Z,100174.11
2018-12-30T04:45:29.056Z,100178.43
2018-12-30T04:46:00.198Z,100172.82
2018-12-30T04:46:31.350Z,100177.99
2018-12-30T04:47:02.533Z,100177.14
2018-12-30T04:47:33.678Z,100178.02
2018-12-30T04:48:04.836Z,100182.30
2018-12-30T04:48:35.978Z,100087.38
2018-12-30T04:49:07.119Z,100186.62
2018-12-30T04:49:38.295Z,100177.13
2018-12-30T04:50:09.445Z,100178.02
2018-12-30T04:50:40.633Z,100183.16
2018-12-30T04:51:11.793Z,100178.44
2018-12-30T04:51:43.004Z,100183.17
2018-12-30T04:52:14.209Z,100179.73
2018-12-30T04:52:45.365Z,100176.67
2018-12-30T04:53:16.519Z,100180.53
2018-12-30T04:53:47.660Z,100177.97
2018-12-30T04:54:18.829Z,100176.69
2018-12-30T04:54:49.960Z,100179.26
2018-12-30T04:55:21.095Z,100181.88
2018-12-30T04:55:54.548Z,100178.44
2018-12-30T04:56:26.651Z,100178.84
2018-12-30T04:56:57.813Z,100180.15
2018-12-30T04:57:28.976Z,100180.15
2018-12-30T04:58:00.120Z,100178.83
2018-12-30T04:58:31.328Z,100180.12
2018-12-30T04:59:02.427Z,100179.68
2018-12-30T04:59:33.636Z,100177.53
2018-12-30T05:00:04.728Z,100181.41
2018-12-30T05:00:35.876Z,100182.30
2018-12-30T05:01:07.110Z,100178.83
2018-12-30T05:01:38.256Z,100180.53
2018-12-30T05:02:09.409Z,100179.68
2018-12-30T05:02:40.547Z,100182.27
2018-12-30T05:03:11.690Z,100178.39
2018-12-30T05:03:42.832Z,100175.81
2018-12-30T05:04:13.981Z,100179.68
2018-12-30T05:04:45.131Z,100179.23
2018-12-30T05:05:16.280Z,100174.95
2018-12-30T05:05:48.843Z,100183.14
2018-12-30T05:06:20.013Z,100181.84
2018-12-30T05:06:51.208Z,100180.15
2018-12-30T05:07:22.380Z,100180.15
2018-12-30T05:07:53.534Z,100176.27
2018-12-30T05:08:24.789Z,100177.53
2018-12-30T05:08:55.945Z,100174.95
2018-12-30T05:09:27.091Z,100177.98
2018-12-30T05:09:58.237Z,100173.66
2018-12-30T05:10:29.388Z,100175.39
2018-12-30T05:11:00.569Z,100177.09
2018-12-30T05:11:31.719Z,100177.09
2018-12-30T05:12:02.865Z,100177.53
2018-12-30T05:12:34.062Z,100174.09
2018-12-30T05:13:05.213Z,100175.80
2018-12-30T05:13:36.349Z,100174.95
2018-12-30T05:14:07.511Z,100173.64
2018-12-30T05:14:38.641Z,100185.69
2018-12-30T05:15:09.785Z,100178.81
2018-12-30T05:15:40.928Z,100174.05
2018-12-30T05:16:12.086Z,100172.76
2018-12-30T05:16:43.224Z,100174.94
2018-12-30T05:17:14.367Z,100172.32
2018-12-30T05:17:45.569Z,100172.77
2018-12-30T05:18:16.711Z,100173.20
2018-12-30T05:18:47.876Z,100178.78
2018-12-30T05:19:19.022Z,100177.94
2018-12-30T05:19:50.195Z,100174.47
2018-12-30T05:20:21.349Z,100171.03
2018-12-30T05:20:52.506Z,100178.34
2018-12-30T05:21:23.655Z,100180.53
2018-12-30T05:21:54.801Z,100172.33
2018-12-30T05:22:33.675Z,100180.50
2018-12-30T05:22:58.886Z,100175.77
2018-12-30T05:23:30.033Z,100177.47
2018-12-30T05:24:01.181Z,100173.59
2018-12-30T05:24:32.329Z,100178.77
2018-12-30T05:25:03.534Z,100174.48
2018-12-30T05:25:34.654Z,100179.20
2018-12-30T05:26:05.802Z,100175.33
2018-12-30T05:26:37.020Z,100172.75
2018-12-30T05:27:08.127Z,100177.45
2018-12-30T05:27:39.277Z,100177.04
2018-12-30T05:28:10.559Z,100174.01
2018-12-30T05:28:41.663Z,100168.43
2018-12-30T05:29:12.814Z,100174.89
2018-12-30T05:29:43.991Z,100180.06
2018-12-30T05:30:15.138Z,100176.63
2018-12-30T05:30:46.327Z,100175.74
2018-12-30T05:31:17.459Z,100177.47
2018-12-30T05:31:48.606Z,100180.06
2018-12-30T05:32:19.776Z,100177.91
2018-12-30T05:32:50.918Z,100175.33
2018-12-30T05:33:22.058Z,100171.01
2018-12-30T05:33:53.243Z,100178.35
2018-12-30T05:34:24.418Z,100172.74
2018-12-30T05:34:57.039Z,100177.47
2018-12-30T05:35:28.203Z,100177.47
2018-12-30T05:35:59.382Z,100177.91
2018-12-30T05:36:30.525Z,100180.05
2018-12-30T05:37:01.675Z,100174.03
2018-12-30T05:37:32.816Z,100179.23
2018-12-30T05:38:03.967Z,100176.20
2018-12-30T05:38:35.156Z,100177.50
2018-12-30T05:39:06.294Z,100167.57
2018-12-30T05:39:37.446Z,100173.63
2018-12-30T05:40:08.589Z,100169.30
2018-12-30T05:40:39.785Z,100171.47
2018-12-30T05:41:11.004Z,100169.30
2018-12-30T05:41:42.148Z,100174.06
2018-12-30T05:42:13.416Z,100169.74
2018-12-30T05:42:44.573Z,100175.35
2018-12-30T05:43:15.745Z,100165.86
2018-12-30T05:43:46.878Z,100168.47
2018-12-30T05:44:18.028Z,100171.05
2018-12-30T05:44:49.169Z,100176.22
2018-12-30T05:45:20.315Z,100176.64
2018-12-30T05:45:51.465Z,100173.20
2018-12-30T05:46:22.602Z,100173.64
2018-12-30T05:46:53.811Z,100178.81
2018-12-30T05:47:24.959Z,100174.08
2018-12-30T05:47:56.108Z,100174.93
2018-12-30T05:48:27.250Z,100178.37
2018-12-30T05:48:58.522Z,100176.23
2018-12-30T05:49:29.685Z,100173.64
2018-12-30T05:50:00.824Z,100180.52
2018-12-30T05:50:31.979Z,100178.40
2018-12-30T05:51:03.200Z,100176.67
2018-12-30T05:51:34.335Z,100176.66
2018-12-30T05:52:05.549Z,100182.25
2018-12-30T05:52:41.812Z,100182.69
2018-12-30T05:53:09.556Z,100183.98
2018-12-30T05:53:40.700Z,100182.69
2018-12-30T05:54:11.859Z,100189.13
2018-12-30T05:54:43.066Z,100181.81
2018-12-30T05:55:14.211Z,100185.69
2018-12-30T05:55:45.358Z,100183.52
2018-12-30T05:56:16.509Z,100182.67